Time;durP1;ratioP1;P1;durP2;ratioP2;P2;SDS_P1;SDS_P2;PMS_P1;PMS_P2;Temp;Humidity;BMP_temperature;BMP_pressure;BME280_temperature;BME280_humidity;BME280_pressure;Samples;Min_cycle;Max_cycle;Signal;HPM_P1;HPM_P2
2022/04/16 00:01:09;;;;;;;0.22;0.20;;;13.10;99.90;;;;;;5114694;28;20027;-79
2022/04/16 00:03:35;;;;;;;0.10;0.10;;;13.00;99.90;;;;;;5113991;28;20126;-73
2022/04/16 00:06:01;;;;;;;0.20;0.20;;;13.00;99.90;;;;;;5120288;28;20058;-79
2022/04/16 00:08:28;;;;;;;0.20;0.13;;;13.00;99.90;;;;;;5113984;28;20024;-73
2022/04/16 00:10:55;;;;;;;0.35;0.10;;;12.90;99.90;;;;;;5113877;28;20375;-73
2022/04/16 00:13:21;;;;;;;0.13;0.08;;;12.90;99.90;;;;;;5113852;28;20031;-73
2022/04/16 00:15:52;;;;;;;0.08;0.08;;;12.90;99.90;;;;;;5114277;28;20031;-73
2022/04/16 00:18:18;;;;;;;0.00;0.00;;;12.90;99.90;;;;;;5114069;28;20076;-73
2022/04/16 00:20:45;;;;;;;2.72;0.90;;;12.90;99.90;;;;;;5083233;28;20047;-73
2022/04/16 00:23:10;;;;;;;0.50;0.20;;;12.90;99.90;;;;;;5073600;28;20029;-73
2022/04/16 00:25:36;;;;;;;0.00;0.00;;;12.80;99.90;;;;;;5073327;28;20042;-73
2022/04/16 00:28:03;;;;;;;0.32;0.20;;;12.80;99.90;;;;;;5073520;28;20082;-73
2022/04/16 00:30:35;;;;;;;0.30;0.20;;;12.80;99.90;;;;;;5073217;28;20029;-79
2022/04/16 00:33:02;;;;;;;0.13;0.13;;;12.80;99.90;;;;;;5073339;28;20056;-80
2022/04/16 00:35:29;;;;;;;8.20;2.20;;;12.70;99.90;;;;;;5072966;28;20020;-79
2022/04/16 00:37:55;;;;;;;0.05;0.05;;;12.70;99.90;;;;;;5083983;28;20028;-79
2022/04/16 00:40:21;;;;;;;0.00;0.00;;;12.60;99.90;;;;;;5093567;28;20032;-73
2022/04/16 00:42:46;;;;;;;0.20;0.10;;;12.70;99.90;;;;;;5092968;28;20533;-73
2022/04/16 00:45:13;;;;;;;2.17;0.30;;;12.60;99.90;;;;;;5095979;28;20044;-78
2022/04/16 00:47:39;;;;;;;0.00;0.00;;;12.60;99.90;;;;;;5114181;28;20089;-73
2022/04/16 00:50:10;;;;;;;0.30;0.30;;;12.60;99.90;;;;;;5092879;28;20020;-73
2022/04/16 00:52:37;;;;;;;0.15;0.15;;;12.60;99.90;;;;;;5091277;28;20032;-73
2022/04/16 00:55:05;;;;;;;0.00;0.00;;;12.60;99.90;;;;;;5073025;28;20495;-73
2022/04/16 00:57:30;;;;;;;0.30;0.30;;;12.60;99.90;;;;;;5072103;28;20023;-80
2022/04/16 00:59:56;;;;;;;1.00;0.85;;;12.60;99.90;;;;;;5072432;28;20017;-80
2022/04/16 01:02:22;;;;;;;1.48;0.77;;;12.50;99.90;;;;;;5073010;28;20029;-79
2022/04/16 01:04:48;;;;;;;0.15;0.15;;;12.50;99.90;;;;;;5054395;28;20031;-79
2022/04/16 01:07:21;;;;;;;0.22;0.22;;;12.50;99.90;;;;;;5072976;28;20036;-80
2022/04/16 01:09:47;;;;;;;0.10;0.10;;;12.40;99.90;;;;;;5073049;28;20109;-73
2022/04/16 01:12:13;;;;;;;0.10;0.10;;;12.40;99.90;;;;;;5072473;28;20112;-79
2022/04/16 01:14:38;;;;;;;0.25;0.05;;;12.40;99.90;;;;;;5071983;28;20439;-73
2022/04/16 01:17:05;;;;;;;0.10;0.10;;;12.30;99.90;;;;;;5072468;28;20029;-73
2022/04/16 01:19:30;;;;;;;0.10;0.10;;;12.30;99.90;;;;;;5066994;28;20538;-79
2022/04/16 01:21:56;;;;;;;1.85;0.80;;;12.20;99.90;;;;;;5052228;28;20060;-73
2022/04/16 01:24:21;;;;;;;0.00;0.00;;;12.20;99.90;;;;;;5052777;28;20024;-79
2022/04/16 01:26:51;;;;;;;0.03;0.03;;;12.10;99.90;;;;;;5052654;28;20495;-73
2022/04/16 01:29:17;;;;;;;0.00;0.00;;;12.10;99.90;;;;;;5052429;28;20024;-73
2022/04/16 01:31:43;;;;;;;0.00;0.00;;;12.00;99.90;;;;;;5052930;28;20108;-79
2022/04/16 01:34:09;;;;;;;0.00;0.00;;;11.90;99.90;;;;;;5052154;28;20059;-73
2022/04/16 01:36:34;;;;;;;0.00;0.00;;;11.90;99.90;;;;;;5052636;28;20103;-74
2022/04/16 01:39:01;;;;;;;0.00;0.00;;;11.90;99.90;;;;;;5052741;28;20022;-79
2022/04/16 01:41:30;;;;;;;0.00;0.00;;;11.80;99.90;;;;;;5052579;28;20029;-73
2022/04/16 01:43:56;;;;;;;0.00;0.00;;;11.80;99.90;;;;;;5052354;28;20087;-73
2022/04/16 01:46:22;;;;;;;0.30;0.20;;;11.80;99.90;;;;;;5065528;28;20052;-79
2022/04/16 01:48:49;;;;;;;0.22;0.22;;;11.80;99.90;;;;;;5053942;28;20020;-73
2022/04/16 01:51:19;;;;;;;0.00;0.00;;;11.80;99.90;;;;;;5072410;28;20078;-73
2022/04/16 01:53:44;;;;;;;0.08;0.08;;;11.70;99.90;;;;;;5082801;28;20020;-73
2022/04/16 01:56:11;;;;;;;0.40;0.20;;;11.70;99.90;;;;;;5092327;28;20037;-79
2022/04/16 01:58:40;;;;;;;0.20;0.20;;;11.60;99.90;;;;;;5092577;28;20046;-73
2022/04/16 02:01:06;;;;;;;0.05;0.03;;;11.60;99.90;;;;;;5092635;28;20020;-73
2022/04/16 02:03:32;;;;;;;0.50;0.28;;;11.70;99.90;;;;;;5092000;28;20027;-73
2022/04/16 02:05:57;;;;;;;0.88;0.30;;;11.60;99.90;;;;;;5092521;28;20084;-73
2022/04/16 02:08:23;;;;;;;0.10;0.05;;;11.60;99.90;;;;;;5095640;28;20643;-78
2022/04/16 02:10:49;;;;;;;0.10;0.10;;;11.60;99.90;;;;;;5096307;28;20102;-79
2022/04/16 02:13:15;;;;;;;0.00;0.00;;;11.60;99.90;;;;;;5095934;28;20070;-73
2022/04/16 02:15:40;;;;;;;0.00;0.00;;;11.50;99.90;;;;;;5096191;28;20054;-79
2022/04/16 02:18:06;;;;;;;0.00;0.00;;;11.50;99.90;;;;;;5094578;28;20032;-79
2022/04/16 02:20:32;;;;;;;0.63;0.50;;;11.50;99.90;;;;;;5095612;28;20024;-73
2022/04/16 02:22:57;;;;;;;0.00;0.00;;;11.50;99.90;;;;;;5095422;28;20026;-73
2022/04/16 02:25:26;;;;;;;0.00;0.00;;;11.50;99.90;;;;;;5095999;28;20032;-73
2022/04/16 02:27:52;;;;;;;0.00;0.00;;;11.50;99.90;;;;;;5095624;28;20032;-79
2022/04/16 02:30:18;;;;;;;0.60;0.55;;;11.60;99.90;;;;;;5095774;28;20031;-79
2022/04/16 02:32:52;;;;;;;0.10;0.10;;;11.50;99.90;;;;;;5095796;28;20039;-79
2022/04/16 02:35:17;;;;;;;0.10;0.10;;;11.50;99.90;;;;;;5077524;28;20440;-79
2022/04/16 02:37:44;;;;;;;0.00;0.00;;;11.40;99.90;;;;;;5096062;28;20038;-73
2022/04/16 02:40:10;;;;;;;0.00;0.00;;;11.40;99.90;;;;;;5095687;28;20020;-73
2022/04/16 02:42:37;;;;;;;0.05;0.05;;;11.40;99.90;;;;;;5095710;28;20024;-79
2022/04/16 02:47:54;;;;;;;0.10;0.10;;;11.20;99.90;;;;;;5095573;28;20081;-73
2022/04/16 02:50:20;;;;;;;1.65;1.27;;;11.20;99.90;;;;;;5095212;28;20028;-73
2022/04/16 02:52:46;;;;;;;0.45;0.45;;;11.20;99.90;;;;;;5094965;28;20020;-73
2022/04/16 02:55:16;;;;;;;0.10;0.10;;;11.20;99.90;;;;;;5095475;28;20069;-73
2022/04/16 02:57:45;;;;;;;0.05;0.05;;;11.10;99.90;;;;;;5109870;28;20043;-78
2022/04/16 03:00:13;;;;;;;0.22;0.22;;;11.10;99.90;;;;;;5083392;28;20039;-73
2022/04/16 03:02:39;;;;;;;0.10;0.10;;;11.10;99.90;;;;;;5074442;28;20488;-73
2022/04/16 03:05:06;;;;;;;0.10;0.10;;;11.10;99.90;;;;;;5074787;28;20029;-73
2022/04/16 03:07:33;;;;;;;0.00;0.00;;;11.10;99.90;;;;;;5075224;28;20024;-79
2022/04/16 03:09:58;;;;;;;0.10;0.10;;;11.10;99.90;;;;;;5074930;28;20032;-79
2022/04/16 03:12:24;;;;;;;0.00;0.00;;;11.10;99.90;;;;;;5075168;28;20036;-79
2022/04/16 03:17:35;;;;;;;0.10;0.10;;;11.10;99.90;;;;;;5074509;28;20047;-72
2022/04/16 03:20:04;;;;;;;0.20;0.10;;;11.10;99.90;;;;;;5055589;28;20027;-79
2022/04/16 03:22:32;;;;;;;0.43;0.43;;;11.10;99.90;;;;;;5074252;28;20031;-79
2022/04/16 03:24:58;;;;;;;0.05;0.05;;;11.20;99.90;;;;;;5074811;28;20032;-79
2022/04/16 03:27:24;;;;;;;0.22;0.22;;;11.20;99.90;;;;;;5074071;28;20036;-73
2022/04/16 03:29:49;;;;;;;0.10;0.10;;;11.20;99.90;;;;;;5074228;28;20372;-73
2022/04/16 03:32:15;;;;;;;0.00;0.00;;;11.20;99.90;;;;;;5074814;28;20024;-73
2022/04/16 03:34:41;;;;;;;12.35;1.20;;;11.20;99.90;;;;;;5074162;28;20036;-79
2022/04/16 03:37:06;;;;;;;0.65;0.38;;;11.20;99.90;;;;;;5077992;28;20023;-73
2022/04/16 03:39:32;;;;;;;0.30;0.30;;;11.20;99.90;;;;;;5094288;28;20031;-79
2022/04/16 03:41:58;;;;;;;0.00;0.00;;;11.20;99.90;;;;;;5094450;28;20035;-79
2022/04/16 03:44:23;;;;;;;0.10;0.10;;;11.20;99.90;;;;;;5094509;28;20036;-73
2022/04/16 03:46:49;;;;;;;0.03;0.03;;;11.20;99.90;;;;;;5094473;28;20418;-73
2022/04/16 03:49:15;;;;;;;0.55;0.38;;;11.10;99.90;;;;;;5094129;28;20023;-74
2022/04/16 03:51:41;;;;;;;0.05;0.05;;;11.10;99.90;;;;;;5094106;28;20024;-79
2022/04/16 04:02:19;;;;;;;0.88;0.38;;;11.10;99.90;;;;;;5094144;28;20023;-79
2022/04/16 04:04:46;;;;;;;0.00;0.00;;;11.10;99.90;;;;;;5093729;28;20028;-79
2022/04/16 04:07:12;;;;;;;0.00;0.00;;;11.10;99.90;;;;;;5094005;28;20487;-80
2022/04/16 04:09:38;;;;;;;0.00;0.00;;;11.10;99.90;;;;;;5093865;28;20024;-73
2022/04/16 04:12:11;;;;;;;0.03;0.03;;;11.00;99.90;;;;;;5093457;28;20042;-75
2022/04/16 04:14:41;;;;;;;0.00;0.00;;;11.00;99.90;;;;;;5092822;28;20027;-79
2022/04/16 04:17:07;;;;;;;0.03;0.03;;;11.10;99.90;;;;;;5093821;28;20020;-73
2022/04/16 04:19:41;;;;;;;0.10;0.10;;;11.00;99.90;;;;;;5093444;28;20415;-79
2022/04/16 04:22:08;;;;;;;0.00;0.00;;;11.00;99.90;;;;;;5093143;28;20107;-73
2022/04/16 04:24:35;;;;;;;0.00;0.00;;;11.00;99.90;;;;;;5093742;28;20055;-73
2022/04/16 04:27:01;;;;;;;0.00;0.00;;;11.00;99.90;;;;;;5095185;28;20051;-79
2022/04/16 04:29:28;;;;;;;0.28;0.10;;;10.90;99.90;;;;;;5093020;28;20064;-73
2022/04/16 04:31:54;;;;;;;0.00;0.00;;;10.90;99.90;;;;;;5094002;28;20081;-73
2022/04/16 04:34:20;;;;;;;0.55;0.10;;;10.80;99.90;;;;;;5092994;28;20085;-73
2022/04/16 04:36:46;;;;;;;0.20;0.20;;;10.80;99.90;;;;;;5093679;28;20077;-73
2022/04/16 04:39:12;;;;;;;1.20;0.30;;;10.80;99.90;;;;;;5093482;28;20024;-79
2022/04/16 04:41:38;;;;;;;0.22;0.10;;;10.80;99.90;;;;;;5093324;28;20384;-73
2022/04/16 04:44:04;;;;;;;0.00;0.00;;;10.80;99.90;;;;;;5093602;28;20490;-79
2022/04/16 04:46:30;;;;;;;0.10;0.10;;;10.90;99.90;;;;;;5093362;28;20135;-73
2022/04/16 04:48:56;;;;;;;0.32;0.28;;;10.80;99.90;;;;;;5092532;28;20048;-73
2022/04/16 04:51:22;;;;;;;0.10;0.10;;;10.90;99.90;;;;;;5093267;28;20040;-79
2022/04/16 04:53:48;;;;;;;0.00;0.00;;;10.90;99.90;;;;;;5092887;28;20026;-79
2022/04/16 04:56:13;;;;;;;0.28;0.28;;;10.90;99.90;;;;;;5092945;28;20068;-79
2022/04/16 04:58:39;;;;;;;0.10;0.10;;;10.90;99.90;;;;;;5093023;28;20028;-73
2022/04/16 05:01:05;;;;;;;0.20;0.20;;;10.80;99.90;;;;;;5092943;28;20538;-73
2022/04/16 05:03:30;;;;;;;1.85;1.25;;;10.80;99.90;;;;;;5092708;28;20513;-73
2022/04/16 05:05:56;;;;;;;2.67;0.38;;;10.80;99.90;;;;;;5092978;28;20027;-79
2022/04/16 05:08:21;;;;;;;0.32;0.32;;;10.80;99.90;;;;;;5095622;28;20042;-79
2022/04/16 05:10:47;;;;;;;0.00;0.00;;;10.80;99.90;;;;;;5093595;28;20025;-73
2022/04/16 05:13:13;;;;;;;0.10;0.10;;;10.70;99.90;;;;;;5092950;28;20024;-73
2022/04/16 05:15:38;;;;;;;0.03;0.03;;;10.70;99.90;;;;;;5092675;28;20107;-73
2022/04/16 05:18:04;;;;;;;0.30;0.13;;;10.60;99.90;;;;;;5092860;28;20028;-79
2022/04/16 05:20:30;;;;;;;0.38;0.20;;;10.60;99.90;;;;;;5092680;28;20028;-73
2022/04/16 05:22:55;;;;;;;0.00;0.00;;;10.60;99.90;;;;;;5092435;28;20054;-78
2022/04/16 05:25:21;;;;;;;0.22;0.20;;;10.50;99.90;;;;;;5074642;28;20085;-79
2022/04/16 05:27:47;;;;;;;0.00;0.00;;;10.60;99.90;;;;;;5093167;28;20032;-73
2022/04/16 05:30:13;;;;;;;0.20;0.20;;;10.60;99.90;;;;;;5074557;28;20030;-73
2022/04/16 05:32:42;;;;;;;0.20;0.20;;;10.60;99.90;;;;;;5092983;28;20127;-79
2022/04/16 05:35:09;;;;;;;1.13;0.85;;;10.60;99.90;;;;;;5092347;28;20386;-79
2022/04/16 05:37:36;;;;;;;0.63;0.40;;;10.50;99.90;;;;;;5092518;28;20111;-73
2022/04/16 05:40:06;;;;;;;0.00;0.00;;;10.60;99.90;;;;;;5092379;28;20483;-73
2022/04/16 05:42:32;;;;;;;0.20;0.20;;;10.60;99.90;;;;;;5094369;28;20020;-73
2022/04/16 05:45:02;;;;;;;0.20;0.20;;;10.60;99.90;;;;;;5096716;28;20487;-79
2022/04/16 05:47:28;;;;;;;0.00;0.00;;;10.60;99.90;;;;;;5099855;28;20034;-79
2022/04/16 05:49:54;;;;;;;0.50;0.45;;;10.60;99.90;;;;;;5102177;28;20040;-73
2022/04/16 05:52:22;;;;;;;0.00;0.00;;;10.60;99.90;;;;;;5096758;28;20483;-79
2022/04/16 05:54:48;;;;;;;0.05;0.05;;;10.60;99.90;;;;;;5096028;28;20023;-73
2022/04/16 05:57:16;;;;;;;0.15;0.10;;;10.70;99.90;;;;;;5095631;28;20103;-79
2022/04/16 05:59:43;;;;;;;0.20;0.03;;;10.70;99.90;;;;;;5074050;28;20372;-79
2022/04/16 06:02:10;;;;;;;0.00;0.00;;;10.70;99.90;;;;;;5075819;28;20044;-73
2022/04/16 06:04:36;;;;;;;0.20;0.20;;;10.80;99.90;;;;;;5075362;28;20487;-73
2022/04/16 06:07:01;;;;;;;0.03;0.03;;;10.80;99.90;;;;;;5075672;28;20028;-73
2022/04/16 06:09:28;;;;;;;0.20;0.20;;;10.80;99.90;;;;;;5075713;28;20505;-79
2022/04/16 06:12:01;;;;;;;0.20;0.20;;;10.90;99.90;;;;;;5075572;28;20031;-79
2022/04/16 06:14:26;;;;;;;0.38;0.38;;;11.00;99.90;;;;;;5075514;28;20028;-73
2022/04/16 06:16:52;;;;;;;0.20;0.20;;;11.10;99.90;;;;;;5075488;28;20078;-73
2022/04/16 06:19:18;;;;;;;0.20;0.20;;;11.10;99.90;;;;;;5074528;28;20056;-73
2022/04/16 06:21:43;;;;;;;0.00;0.00;;;11.20;99.90;;;;;;5075374;28;20063;-73
2022/04/16 06:24:09;;;;;;;0.20;0.20;;;11.30;99.90;;;;;;5074422;28;20442;-79
2022/04/16 06:26:35;;;;;;;0.10;0.10;;;11.40;99.90;;;;;;5057140;28;20053;-73
2022/04/16 06:29:01;;;;;;;0.22;0.22;;;11.50;99.90;;;;;;5074952;28;20506;-73
2022/04/16 06:31:26;;;;;;;0.03;0.03;;;11.60;99.90;;;;;;5074479;28;20020;-73
2022/04/16 06:33:52;;;;;;;0.03;0.03;;;11.70;99.90;;;;;;5074240;28;20060;-73
2022/04/16 06:36:18;;;;;;;0.28;0.28;;;11.70;99.90;;;;;;5074967;28;20025;-80
2022/04/16 06:38:43;;;;;;;0.10;0.10;;;11.90;99.90;;;;;;5092303;28;20030;-79
2022/04/16 06:41:09;;;;;;;0.40;0.40;;;12.00;99.90;;;;;;5095221;28;20028;-73
2022/04/16 06:43:35;;;;;;;0.35;0.15;;;12.10;99.90;;;;;;5095058;28;20091;-73
2022/04/16 06:46:01;;;;;;;0.00;0.00;;;12.20;99.90;;;;;;5076647;28;20101;-73
2022/04/16 06:48:26;;;;;;;3.05;1.27;;;12.20;99.90;;;;;;5094782;28;20099;-79
2022/04/16 06:50:52;;;;;;;0.32;0.32;;;12.30;99.90;;;;;;5095038;28;20282;-79
2022/04/16 06:53:17;;;;;;;1.00;0.32;;;12.40;99.90;;;;;;5093762;28;20020;-73
2022/04/16 06:55:43;;;;;;;3.50;1.55;;;12.50;99.90;;;;;;5094239;28;20036;-79
2022/04/16 06:58:09;;;;;;;0.90;0.80;;;12.60;99.90;;;;;;5095177;28;20047;-73
2022/04/16 07:00:35;;;;;;;3.30;0.30;;;12.70;99.90;;;;;;5076476;28;20040;-79
2022/04/16 07:03:00;;;;;;;0.17;0.17;;;12.80;99.90;;;;;;5074713;28;20020;-79
2022/04/16 07:05:26;;;;;;;2.45;1.50;;;12.80;99.90;;;;;;5074249;28;20044;-73
2022/04/16 07:07:51;;;;;;;1.33;0.75;;;13.00;99.90;;;;;;5073946;28;20024;-73
2022/04/16 07:10:17;;;;;;;0.50;0.50;;;13.10;99.90;;;;;;5074274;28;20894;-79
2022/04/16 07:12:43;;;;;;;1.23;1.13;;;13.20;99.90;;;;;;5074190;28;20028;-74
2022/04/16 07:15:09;;;;;;;0.60;0.43;;;13.20;99.90;;;;;;5073201;28;20024;-79
2022/04/16 07:17:34;;;;;;;1.45;0.60;;;13.30;99.90;;;;;;5074252;28;20368;-79
2022/04/16 07:20:00;;;;;;;0.43;0.43;;;13.50;99.90;;;;;;5073901;28;20039;-73
2022/04/16 07:22:26;;;;;;;18.25;1.30;;;13.60;99.90;;;;;;5074267;28;20028;-73
2022/04/16 07:24:52;;;;;;;0.60;0.60;;;13.80;99.90;;;;;;5073591;28;20488;-73
2022/04/16 07:27:18;;;;;;;0.43;0.43;;;13.90;99.90;;;;;;5074198;28;20032;-78
2022/04/16 07:29:43;;;;;;;0.98;0.95;;;14.00;99.90;;;;;;5055714;28;20020;-79
2022/04/16 07:32:09;;;;;;;0.40;0.40;;;14.10;99.90;;;;;;5073966;28;20046;-73
2022/04/16 07:34:35;;;;;;;2.80;0.82;;;14.30;99.90;;;;;;5073546;28;20035;-79
2022/04/16 07:37:00;;;;;;;0.20;0.20;;;14.40;99.90;;;;;;5076252;28;20059;-79
2022/04/16 07:39:26;;;;;;;1.08;0.70;;;14.50;99.90;;;;;;5093789;28;20108;-73
2022/04/16 07:41:52;;;;;;;5.50;1.38;;;14.60;99.90;;;;;;5093896;28;20123;-79
2022/04/16 07:44:18;;;;;;;2.78;0.75;;;14.80;99.90;;;;;;5093280;28;20073;-73
2022/04/16 07:46:44;;;;;;;0.80;0.28;;;15.10;99.90;;;;;;5093652;28;20052;-73
2022/04/16 07:49:09;;;;;;;1.88;0.73;;;15.20;99.90;;;;;;5093588;28;20032;-73
2022/04/16 07:51:35;;;;;;;1.40;1.30;;;15.40;99.90;;;;;;5093477;28;20031;-79
2022/04/16 07:54:00;;;;;;;0.15;0.15;;;15.50;99.90;;;;;;5093564;28;20030;-79
2022/04/16 07:56:26;;;;;;;9.30;2.10;;;15.70;99.90;;;;;;5093586;28;20103;-79
2022/04/16 07:58:54;;;;;;;1.13;0.82;;;15.90;99.90;;;;;;5089900;28;20024;-73
2022/04/16 08:01:20;;;;;;;1.50;0.98;;;16.20;99.90;;;;;;5072753;28;20484;-73
2022/04/16 08:03:45;;;;;;;5.15;1.20;;;16.60;99.90;;;;;;5072961;28;20043;-73
2022/04/16 08:06:11;;;;;;;2.05;1.42;;;17.90;99.90;;;;;;5072975;28;20029;-79
2022/04/16 08:08:37;;;;;;;4.30;1.40;;;20.60;99.90;;;;;;5073558;28;20456;-79
2022/04/16 08:11:03;;;;;;;4.85;1.65;;;22.70;99.90;;;;;;5072993;28;20078;-77
2022/04/16 08:13:28;;;;;;;6.55;1.77;;;24.00;97.80;;;;;;5072852;28;20036;-77
2022/04/16 08:15:54;;;;;;;2.88;1.73;;;25.00;96.50;;;;;;5073062;28;20029;-77
2022/04/16 08:18:20;;;;;;;1.88;1.42;;;25.90;95.80;;;;;;5072178;28;20501;-72
2022/04/16 08:20:46;;;;;;;2.30;1.40;;;26.30;94.20;;;;;;5072845;28;20047;-77
2022/04/16 08:23:13;;;;;;;2.33;1.88;;;27.10;93.60;;;;;;5073026;28;20059;-72
2022/04/16 08:28:05;;;;;;;2.08;1.70;;;27.40;92.50;;;;;;5072911;28;20041;-73
2022/04/16 08:30:31;;;;;;;2.88;2.22;;;28.10;92.00;;;;;;5072627;28;20069;-72
2022/04/16 08:32:58;;;;;;;1.65;1.40;;;27.90;92.10;;;;;;5072683;28;20028;-75
2022/04/16 08:35:24;;;;;;;3.85;1.80;;;28.00;91.40;;;;;;5072711;28;20110;-78
2022/04/16 08:37:50;;;;;;;4.32;1.95;;;28.60;92.40;;;;;;5082943;28;20024;-72
2022/04/16 08:40:17;;;;;;;8.57;2.28;;;28.80;90.70;;;;;;5092890;28;20115;-72
2022/04/16 08:42:44;;;;;;;2.30;1.70;;;28.80;89.80;;;;;;5093058;28;20028;-73
2022/04/16 08:45:11;;;;;;;2.25;1.95;;;29.20;90.50;;;;;;5089775;28;20037;-77
2022/04/16 08:47:38;;;;;;;2.28;1.55;;;29.90;90.00;;;;;;5072658;28;20032;-77
2022/04/16 08:50:07;;;;;;;2.42;2.22;;;30.20;88.30;;;;;;5072466;28;20032;-72
2022/04/16 08:52:34;;;;;;;2.53;2.08;;;30.20;87.50;;;;;;5090909;28;20024;-73
2022/04/16 08:55:02;;;;;;;6.28;2.15;;;30.00;87.80;;;;;;5072598;28;20127;-73
2022/04/16 08:57:27;;;;;;;2.83;2.15;;;29.90;88.90;;;;;;5072205;28;20075;-73
2022/04/16 08:59:54;;;;;;;1.88;1.73;;;29.80;88.10;;;;;;5060288;28;20504;-78
2022/04/16 09:02:22;;;;;;;2.30;1.70;;;29.70;88.30;;;;;;5052459;28;20112;-72
2022/04/16 09:04:59;;;;;;;2.28;1.90;;;29.90;87.60;;;;;;5052065;28;20021;-72
2022/04/16 09:07:25;;;;;;;2.80;2.08;;;29.40;88.10;;;;;;5052208;28;20048;-73
2022/04/16 09:09:51;;;;;;;2.17;1.98;;;29.60;88.20;;;;;;5052407;28;20025;-73
2022/04/16 09:12:19;;;;;;;3.03;2.05;;;30.20;87.40;;;;;;5052153;28;20029;-77
2022/04/16 09:14:46;;;;;;;2.78;2.28;;;30.50;86.20;;;;;;5052174;28;20021;-77
2022/04/16 09:17:19;;;;;;;5.22;2.45;;;29.90;86.60;;;;;;5051506;28;20013;-77
2022/04/16 09:19:54;;;;;;;2.53;1.88;;;30.20;87.40;;;;;;5051872;28;20029;-77
2022/04/16 09:22:34;;;;;;;2.92;2.05;;;29.80;85.10;;;;;;5052280;28;20147;-73
2022/04/16 09:25:00;;;;;;;2.50;1.90;;;30.30;85.50;;;;;;5051430;28;20433;-77
2022/04/16 09:27:26;;;;;;;3.40;2.33;;;30.40;86.20;;;;;;5051425;28;20041;-77
2022/04/16 09:29:54;;;;;;;4.60;1.80;;;29.90;85.70;;;;;;5051906;28;20032;-73
2022/04/16 09:32:24;;;;;;;2.50;1.88;;;30.30;85.60;;;;;;5052059;28;20025;-72
2022/04/16 09:34:51;;;;;;;3.30;2.15;;;31.10;85.90;;;;;;5051973;28;20028;-77
2022/04/16 09:37:16;;;;;;;2.53;1.90;;;30.70;82.20;;;;;;5057451;28;20028;-77
2022/04/16 09:39:42;;;;;;;2.20;2.00;;;30.40;84.10;;;;;;5071997;28;20039;-77
2022/04/16 09:42:07;;;;;;;2.08;1.88;;;30.80;84.40;;;;;;5072213;28;20044;-73
2022/04/16 09:44:33;;;;;;;2.30;2.10;;;30.80;84.10;;;;;;5072036;28;20017;-77
2022/04/16 09:46:59;;;;;;;4.20;1.70;;;30.90;82.00;;;;;;5089956;28;20052;-73
2022/04/16 09:49:25;;;;;;;2.72;1.80;;;29.90;82.40;;;;;;5112183;28;20024;-73
2022/04/16 09:51:51;;;;;;;2.13;1.27;;;30.20;82.40;;;;;;5112474;28;20031;-77
2022/04/16 09:54:18;;;;;;;1.30;1.23;;;30.00;81.20;;;;;;5096595;28;20013;-73
2022/04/16 09:56:49;;;;;;;2.60;1.30;;;29.50;81.90;;;;;;5091974;28;20447;-73
2022/04/16 09:59:16;;;;;;;3.20;1.98;;;29.60;81.90;;;;;;5084816;28;20037;-73
2022/04/16 10:01:49;;;;;;;2.17;1.80;;;29.50;81.90;;;;;;5071602;28;20060;-77
2022/04/16 10:04:15;;;;;;;2.75;1.60;;;29.50;81.60;;;;;;5070917;28;20029;-77
2022/04/16 10:06:41;;;;;;;2.75;1.80;;;29.50;81.00;;;;;;5071997;28;20025;-77
2022/04/16 10:09:22;;;;;;;1.95;1.70;;;29.60;81.40;;;;;;5071629;28;20082;-76
2022/04/16 10:14:56;;;;;;;4.68;1.67;;;29.50;81.00;;;;;;5071062;28;20054;-76
2022/04/16 10:17:35;;;;;;;1.33;1.23;;;29.40;81.30;;;;;;5071480;28;20021;-77
2022/04/16 10:20:18;;;;;;;1.30;1.20;;;29.40;81.30;;;;;;5071325;28;20028;-77
2022/04/16 10:22:56;;;;;;;2.83;1.52;;;28.90;81.40;;;;;;5071502;28;20033;-77
2022/04/16 10:25:35;;;;;;;2.75;1.90;;;29.00;81.80;;;;;;5070907;28;20052;-73
2022/04/16 10:28:06;;;;;;;2.15;1.00;;;29.30;81.80;;;;;;5072158;28;20047;-73
2022/04/16 10:30:40;;;;;;;2.10;1.73;;;29.20;79.80;;;;;;5074642;28;20020;-77
2022/04/16 10:33:23;;;;;;;3.17;1.73;;;28.90;80.80;;;;;;5074752;28;20025;-77
2022/04/16 10:35:52;;;;;;;1.50;1.25;;;28.80;81.80;;;;;;5075039;28;20031;-72
2022/04/16 10:38:26;;;;;;;1.48;1.17;;;28.70;81.80;;;;;;5088130;28;20016;-73
2022/04/16 10:41:00;;;;;;;3.72;1.60;;;28.50;81.20;;;;;;5095228;28;20027;-73
2022/04/16 10:43:30;;;;;;;2.65;1.58;;;28.30;83.00;;;;;;5094804;28;20028;-73
2022/04/16 10:46:02;;;;;;;3.13;1.30;;;27.70;82.00;;;;;;5085466;28;20056;-77
2022/04/16 10:48:31;;;;;;;5.32;1.23;;;27.40;83.40;;;;;;5074371;28;20020;-73
2022/04/16 10:51:00;;;;;;;1.35;1.08;;;27.40;83.70;;;;;;5074802;28;20025;-72
2022/04/16 10:53:32;;;;;;;2.15;1.23;;;28.00;82.90;;;;;;5074181;28;20036;-73
2022/04/16 10:56:13;;;;;;;7.22;1.67;;;28.10;82.70;;;;;;5074624;28;20025;-73
2022/04/16 10:58:43;;;;;;;1.95;1.00;;;28.30;82.60;;;;;;5072507;28;20056;-72
2022/04/16 11:01:22;;;;;;;2.47;1.25;;;27.70;82.50;;;;;;5054285;28;20040;-73
2022/04/16 11:03:49;;;;;;;1.65;1.17;;;26.80;83.80;;;;;;5054061;28;20029;-72
2022/04/16 11:06:17;;;;;;;1.17;1.08;;;26.10;84.50;;;;;;5054405;28;20032;-72
2022/04/16 11:08:45;;;;;;;3.55;0.82;;;25.80;85.40;;;;;;5054584;28;20565;-77
2022/04/16 11:11:12;;;;;;;4.57;1.30;;;26.20;86.50;;;;;;5054088;28;20028;-76
2022/04/16 11:13:40;;;;;;;0.88;0.75;;;25.80;85.70;;;;;;5053316;28;20112;-72
2022/04/16 11:16:06;;;;;;;3.60;1.50;;;25.90;88.20;;;;;;5054267;28;20019;-72
2022/04/16 11:18:43;;;;;;;1.75;0.75;;;25.30;87.00;;;;;;5053876;28;20031;-72
2022/04/16 11:21:14;;;;;;;4.88;1.33;;;25.30;88.20;;;;;;5054097;28;20022;-72
2022/04/16 11:23:45;;;;;;;1.27;1.00;;;25.20;88.20;;;;;;5054030;28;20091;-77
2022/04/16 11:34:26;;;;;;;1.13;1.02;;;24.80;88.50;;;;;;5053763;28;20567;-76
2022/04/16 11:36:53;;;;;;;1.50;0.60;;;24.80;88.80;;;;;;5056144;28;20096;-76
2022/04/16 11:39:23;;;;;;;1.35;0.80;;;24.90;88.70;;;;;;5073802;28;20025;-72
2022/04/16 11:41:57;;;;;;;0.68;0.50;;;24.90;90.10;;;;;;5073376;28;20027;-72
2022/04/16 11:44:42;;;;;;;5.78;0.70;;;24.70;87.90;;;;;;5074002;28;20399;-72
2022/04/16 11:47:12;;;;;;;0.75;0.75;;;24.70;90.20;;;;;;5073127;28;20052;-72
2022/04/16 11:49:40;;;;;;;0.40;0.40;;;24.50;87.20;;;;;;5072827;28;20051;-76
2022/04/16 11:52:08;;;;;;;1.08;0.88;;;24.30;88.60;;;;;;5073795;28;20040;-72
2022/04/16 11:54:34;;;;;;;1.70;1.10;;;24.50;89.60;;;;;;5073131;28;20096;-72
2022/04/16 11:57:00;;;;;;;3.38;0.60;;;24.40;87.10;;;;;;5073291;28;20059;-72
2022/04/16 11:59:27;;;;;;;0.90;0.35;;;24.40;88.90;;;;;;5064992;28;20067;-72
2022/04/16 12:02:06;;;;;;;0.82;0.60;;;24.30;89.80;;;;;;5053704;28;20036;-79
2022/04/16 12:04:43;;;;;;;1.23;0.52;;;24.10;87.70;;;;;;5053125;28;20467;-74
2022/04/16 12:07:13;;;;;;;0.52;0.52;;;24.10;90.00;;;;;;5053450;28;20056;-74
2022/04/16 12:09:45;;;;;;;0.75;0.50;;;24.20;89.50;;;;;;5053144;28;20083;-74
2022/04/16 12:12:40;;;;;;;0.30;0.30;;;24.10;90.00;;;;;;5052953;28;20036;-74
2022/04/16 12:15:06;;;;;;;4.80;0.68;;;24.50;88.80;;;;;;5038187;28;20029;-79
2022/04/16 12:17:34;;;;;;;0.55;0.55;;;24.30;90.00;;;;;;5052992;28;20052;-74
2022/04/16 12:20:08;;;;;;;0.63;0.63;;;24.10;91.10;;;;;;5052657;28;20547;-79
2022/04/16 12:23:05;;;;;;;1.48;0.60;;;24.30;90.10;;;;;;5052555;28;20568;-74
2022/04/16 12:25:32;;;;;;;2.42;0.38;;;24.20;88.60;;;;;;5052701;28;20036;-74
2022/04/16 12:27:59;;;;;;;0.50;0.50;;;23.90;89.50;;;;;;5052671;28;20063;-79
2022/04/16 12:30:27;;;;;;;0.55;0.32;;;24.00;89.70;;;;;;5052847;28;20087;-74
2022/04/16 12:33:01;;;;;;;0.20;0.20;;;24.10;89.20;;;;;;5052965;28;20053;-74
2022/04/16 12:35:32;;;;;;;0.40;0.40;;;24.10;90.50;;;;;;5052416;28;20025;-74
2022/04/16 12:37:58;;;;;;;1.20;0.52;;;24.30;90.00;;;;;;5063850;28;20028;-74
2022/04/16 12:40:26;;;;;;;1.08;0.68;;;24.10;88.80;;;;;;5072723;28;20028;-79
2022/04/16 12:42:53;;;;;;;0.55;0.38;;;24.00;88.90;;;;;;5072789;28;20511;-79
2022/04/16 12:45:20;;;;;;;0.32;0.32;;;24.00;90.00;;;;;;5072562;28;20032;-74
2022/04/16 12:47:45;;;;;;;0.52;0.52;;;24.10;90.20;;;;;;5072686;28;20041;-74
2022/04/16 12:50:13;;;;;;;0.85;0.40;;;24.40;90.70;;;;;;5054478;28;20024;-74
2022/04/16 12:52:40;;;;;;;0.77;0.70;;;24.80;90.40;;;;;;5071428;28;20044;-79
2022/04/16 12:55:05;;;;;;;0.93;0.50;;;24.40;89.30;;;;;;5072399;28;20073;-74
2022/04/16 12:57:32;;;;;;;1.00;0.88;;;24.20;88.00;;;;;;5071694;28;20036;-74
2022/04/16 12:59:57;;;;;;;1.92;0.30;;;24.30;90.10;;;;;;5059706;28;20028;-79
2022/04/16 13:02:24;;;;;;;1.23;0.50;;;24.60;90.90;;;;;;5052620;28;20033;-74
2022/04/16 13:04:50;;;;;;;0.60;0.60;;;24.40;89.20;;;;;;5052070;28;20086;-79
2022/04/16 13:07:16;;;;;;;1.00;0.43;;;24.60;88.80;;;;;;5052318;28;20033;-74
2022/04/16 13:09:42;;;;;;;2.83;0.98;;;24.50;89.40;;;;;;5052063;28;20043;-74
2022/04/16 13:12:07;;;;;;;4.60;1.33;;;24.50;89.20;;;;;;5052131;28;20029;-74
2022/04/16 13:14:33;;;;;;;0.60;0.60;;;24.40;87.10;;;;;;5051513;28;20151;-74
2022/04/16 13:16:59;;;;;;;0.40;0.40;;;24.30;88.80;;;;;;5052236;28;20028;-74